CPX652 Details

Departure: Lynden Pindling International Airport (MYNN)
Arrival: Miami International Airport (KMIA)
Route: ZQA FOWEE9


Current Weather Information
MYNN 261000Z VRB02KT 9999 FEW018 19/19 A2999
KMIA 260953Z 29003KT 10SM FEW020 21/17 A3000 RMK AO2 SLP160 T02060172